Time;durP1;ratioP1;P1;durP2;ratioP2;P2;SDS_P1;SDS_P2;PMS_P1;PMS_P2;Temp;Humidity;BMP_temperature;BMP_pressure;BME280_temperature;BME280_humidity;BME280_pressure;Samples;Min_cycle;Max_cycle;Signal;HPM_P1;HPM_P2
2021/10/10 00:01:51;;;;;;;11.13;6.93;;;;;;;1.71;nan;102554.00;4955476;28;20046;-84
2021/10/10 00:04:23;;;;;;;9.87;6.53;;;;;;;1.79;nan;102549.13;4960266;28;20080;-85
2021/10/10 00:06:50;;;;;;;10.13;6.50;;;;;;;1.78;nan;102547.34;4978810;28;20506;-83
2021/10/10 00:09:21;;;;;;;12.53;6.83;;;;;;;1.78;nan;102547.34;4961110;28;20077;-84
2021/10/10 00:11:49;;;;;;;10.00;6.27;;;;;;;1.74;nan;102538.47;4977299;28;20471;-83
2021/10/10 00:14:16;;;;;;;10.90;7.00;;;;;;;1.71;nan;102540.97;4989486;28;20068;-83
2021/10/10 00:16:44;;;;;;;10.77;6.87;;;;;;;1.82;nan;102539.72;4961355;28;20038;-85
2021/10/10 00:19:13;;;;;;;10.10;6.17;;;;;;;1.79;nan;102534.38;4973079;28;20038;-83
2021/10/10 00:21:39;;;;;;;11.10;6.83;;;;;;;1.82;nan;102538.84;4957747;28;20039;-81
2021/10/10 00:24:07;;;;;;;11.50;7.60;;;;;;;1.77;nan;102538.66;4943011;28;20054;-81
2021/10/10 00:26:34;;;;;;;11.47;7.20;;;;;;;1.73;nan;102535.81;4966017;28;20125;-81
2021/10/10 00:29:02;;;;;;;10.60;7.00;;;;;;;1.65;nan;102528.53;4992000;28;20060;-82
2021/10/10 00:31:29;;;;;;;11.37;6.93;;;;;;;1.60;nan;102527.47;4949254;28;20034;-81
2021/10/10 00:33:56;;;;;;;9.63;6.50;;;;;;;1.56;nan;102520.31;4986820;28;20062;-82
2021/10/10 00:36:23;;;;;;;9.40;6.40;;;;;;;1.57;nan;102523.81;5037344;22;20132;-81
2021/10/10 00:38:49;;;;;;;11.73;6.50;;;;;;;1.56;nan;102524.63;4989105;28;20061;-81
2021/10/10 00:41:16;;;;;;;10.80;6.57;;;;;;;1.52;nan;102523.59;4989076;28;20581;-81
2021/10/10 00:43:43;;;;;;;14.17;7.30;;;;;;;1.54;nan;102518.47;4979159;28;20072;-80
2021/10/10 00:46:12;;;;;;;9.10;6.43;;;;;;;1.50;nan;102519.13;4963574;28;20464;-81
2021/10/10 00:48:39;;;;;;;10.93;6.23;;;;;;;1.57;nan;102527.28;4960387;28;20049;-81
2021/10/10 00:51:06;;;;;;;8.40;6.13;;;;;;;1.62;nan;102524.91;4987555;28;20517;-81
2021/10/10 00:53:35;;;;;;;10.23;6.00;;;;;;;1.70;nan;102523.56;4972793;28;20138;-80
2021/10/10 00:56:02;;;;;;;10.93;6.53;;;;;;;1.68;nan;102525.16;4961498;28;20188;-81
2021/10/10 00:58:29;;;;;;;10.90;7.13;;;;;;;1.54;nan;102515.84;4988070;28;20080;-80
2021/10/10 01:00:56;;;;;;;12.47;6.90;;;;;;;1.54;nan;102511.53;4975060;28;20455;-81
2021/10/10 01:03:23;;;;;;;11.03;6.40;;;;;;;1.45;nan;102511.13;4962598;28;20407;-81
2021/10/10 01:05:51;;;;;;;13.77;8.10;;;;;;;1.43;nan;102507.56;4962017;28;20069;-82
2021/10/10 01:08:18;;;;;;;13.63;7.23;;;;;;;1.41;nan;102509.16;4968168;28;20054;-81
2021/10/10 01:10:47;;;;;;;10.43;6.50;;;;;;;1.35;nan;102504.59;4986488;28;20044;-81
2021/10/10 01:13:18;;;;;;;9.80;6.70;;;;;;;1.29;nan;102503.41;4958485;28;20712;-81
2021/10/10 01:15:44;;;;;;;11.23;6.60;;;;;;;1.27;nan;102492.94;4988908;28;20030;-81
2021/10/10 01:18:11;;;;;;;9.77;6.70;;;;;;;1.23;nan;102492.69;4960338;28;20049;-81
2021/10/10 01:20:45;;;;;;;11.63;6.50;;;;;;;1.31;nan;102492.25;4972600;28;20042;-81
2021/10/10 01:23:12;;;;;;;;;;;;;;;1.34;nan;102491.47;4961447;28;20053;-81
2021/10/10 01:25:39;;;;;;;9.30;5.73;;;;;;;1.28;nan;102489.50;4963578;28;19937;-81
2021/10/10 01:28:06;;;;;;;10.73;7.00;;;;;;;1.25;nan;102491.06;4974736;28;20038;-81
2021/10/10 01:30:33;;;;;;;11.10;6.23;;;;;;;1.20;nan;102490.84;4973590;28;20053;-80
2021/10/10 01:33:00;;;;;;;8.93;5.90;;;;;;;1.20;nan;102485.66;4976870;28;20073;-83
2021/10/10 01:35:28;;;;;;;14.33;6.83;;;;;;;1.10;nan;102488.66;4974317;28;20042;-83
2021/10/10 01:37:54;;;;;;;12.20;6.30;;;;;;;1.11;nan;102486.09;4976377;28;20038;-80
2021/10/10 01:40:21;;;;;;;11.50;6.13;;;;;;;1.06;nan;102490.19;4986413;28;20050;-82
2021/10/10 01:42:48;;;;;;;13.20;7.37;;;;;;;1.01;nan;102480.38;4974033;28;20038;-83
2021/10/10 01:45:20;;;;;;;12.23;7.60;;;;;;;1.03;nan;102489.16;4974404;28;20134;-80
2021/10/10 01:47:46;;;;;;;9.03;6.30;;;;;;;1.08;nan;102480.75;4968680;28;20091;-82
2021/10/10 01:50:13;;;;;;;10.47;6.97;;;;;;;1.04;nan;102481.44;4962307;28;20056;-80
2021/10/10 01:52:43;;;;;;;10.30;6.40;;;;;;;1.05;nan;102475.41;4978335;28;20585;-83
2021/10/10 01:55:10;;;;;;;10.80;6.73;;;;;;;1.03;nan;102481.38;4960481;28;20048;-81
2021/10/10 01:57:37;;;;;;;10.23;6.57;;;;;;;0.96;nan;102480.16;4959087;28;20503;-80
2021/10/10 02:00:06;;;;;;;10.40;6.90;;;;;;;0.94;nan;102481.81;4970025;28;20042;-79
2021/10/10 02:02:32;;;;;;;11.93;6.70;;;;;;;0.93;nan;102473.94;4958039;28;20056;-82
2021/10/10 02:04:59;;;;;;;14.07;7.13;;;;;;;0.90;nan;102471.16;4949274;28;20438;-80
2021/10/10 02:07:26;;;;;;;10.73;7.07;;;;;;;0.86;nan;102467.53;4953515;28;20053;-80
2021/10/10 02:09:53;;;;;;;12.70;6.73;;;;;;;0.89;nan;102466.78;4941721;28;20042;-81
2021/10/10 02:12:19;;;;;;;13.40;7.03;;;;;;;0.81;nan;102474.22;4940334;28;20070;-80
2021/10/10 02:14:46;;;;;;;13.73;7.30;;;;;;;0.80;nan;102480.25;4967707;28;20050;-80
2021/10/10 02:17:13;;;;;;;11.60;7.07;;;;;;;0.77;nan;102475.81;4975218;28;20049;-82
2021/10/10 02:19:40;;;;;;;11.03;7.83;;;;;;;0.74;nan;102464.34;4952278;28;20046;-80
2021/10/10 02:22:06;;;;;;;12.70;7.57;;;;;;;0.74;nan;102470.44;4965404;28;20050;-80
2021/10/10 02:24:33;;;;;;;12.87;7.30;;;;;;;0.72;nan;102465.97;4990550;28;20053;-82
2021/10/10 02:27:00;;;;;;;13.97;8.03;;;;;;;0.72;nan;102472.06;4959881;28;20411;-82
2021/10/10 02:29:26;;;;;;;13.30;8.00;;;;;;;0.74;nan;102459.13;4974049;28;20042;-80
2021/10/10 02:31:55;;;;;;;13.37;8.53;;;;;;;0.76;nan;102460.13;4970118;28;20533;-84
2021/10/10 02:34:21;;;;;;;13.67;8.57;;;;;;;0.74;nan;102462.63;4981305;28;20048;-81
2021/10/10 02:36:48;;;;;;;13.97;8.83;;;;;;;0.67;nan;102457.94;4964445;28;20042;-82
2021/10/10 02:39:15;;;;;;;12.93;7.43;;;;;;;0.68;nan;102445.84;4980844;28;20172;-83
2021/10/10 02:41:42;;;;;;;14.10;8.70;;;;;;;0.70;nan;102449.41;4964886;28;20050;-80
2021/10/10 02:44:08;;;;;;;13.87;8.43;;;;;;;0.60;nan;102445.47;4979992;28;20050;-81
2021/10/10 02:46:35;;;;;;;13.70;8.13;;;;;;;0.57;nan;102447.91;4996628;28;20040;-80
2021/10/10 02:49:02;;;;;;;14.03;8.33;;;;;;;0.53;nan;102440.78;4963514;28;20430;-82
2021/10/10 02:51:30;;;;;;;12.43;7.43;;;;;;;0.49;nan;102442.34;4981595;28;20034;-82
2021/10/10 02:53:57;;;;;;;12.53;8.27;;;;;;;0.48;nan;102437.06;4964867;28;20406;-84
2021/10/10 02:56:24;;;;;;;15.57;8.83;;;;;;;0.52;nan;102437.31;4967698;28;20042;-85
2021/10/10 02:58:51;;;;;;;12.33;7.97;;;;;;;0.55;nan;102441.75;4978411;28;20050;-83
2021/10/10 03:01:17;;;;;;;13.47;7.97;;;;;;;0.49;nan;102436.25;4965992;28;20106;-82
2021/10/10 03:03:44;;;;;;;14.00;8.13;;;;;;;0.47;nan;102437.88;4984000;28;20096;-83
2021/10/10 03:06:11;;;;;;;12.30;7.53;;;;;;;0.41;nan;102434.97;4980882;28;20492;-83
2021/10/10 03:08:37;;;;;;;12.90;7.50;;;;;;;0.34;nan;102432.88;4971782;28;20041;-83
2021/10/10 03:11:09;;;;;;;10.87;6.70;;;;;;;0.26;nan;102435.13;4972363;28;20049;-85
2021/10/10 03:13:36;;;;;;;11.97;6.70;;;;;;;0.25;nan;102429.06;4964645;28;20046;-87
2021/10/10 03:16:03;;;;;;;11.17;7.73;;;;;;;0.24;nan;102439.34;4966043;28;20049;-83
2021/10/10 03:18:30;;;;;;;11.73;7.67;;;;;;;0.21;nan;102436.59;4980188;28;20533;-83
2021/10/10 03:20:57;;;;;;;10.93;7.13;;;;;;;0.14;nan;102430.19;4966158;28;20063;-83
2021/10/10 03:23:23;;;;;;;12.40;8.77;;;;;;;0.15;nan;102428.50;4979195;28;20050;-82
2021/10/10 03:25:50;;;;;;;13.67;7.63;;;;;;;0.09;nan;102428.22;4979079;28;20427;-82
2021/10/10 03:28:17;;;;;;;14.70;7.50;;;;;;;0.02;nan;102414.00;4956619;28;20270;-82
2021/10/10 03:30:43;;;;;;;14.00;7.93;;;;;;;0.05;nan;102423.66;4972903;28;20042;-81
2021/10/10 03:33:10;;;;;;;10.87;7.40;;;;;;;0.13;nan;102424.94;4962376;28;20601;-82
2021/10/10 03:35:37;;;;;;;14.03;6.97;;;;;;;0.11;nan;102410.97;4968430;28;20051;-82
2021/10/10 03:38:04;;;;;;;12.80;8.47;;;;;;;0.11;nan;102416.19;4950495;28;20046;-82
2021/10/10 03:40:31;;;;;;;14.03;7.83;;;;;;;0.15;nan;102425.88;4958635;28;20054;-81
2021/10/10 03:42:58;;;;;;;10.67;7.27;;;;;;;0.12;nan;102407.56;4960658;28;20396;-82
2021/10/10 03:45:24;;;;;;;12.70;8.60;;;;;;;0.09;nan;102410.00;4976354;28;20045;-81
2021/10/10 03:47:51;;;;;;;16.50;9.23;;;;;;;0.19;nan;102420.06;4955434;28;20052;-81
2021/10/10 03:50:18;;;;;;;12.77;7.70;;;;;;;0.12;nan;102410.16;4963383;28;20053;-81
2021/10/10 03:52:45;;;;;;;15.00;7.80;;;;;;;0.08;nan;102410.81;4962491;28;20189;-81
2021/10/10 03:55:33;;;;;;;13.17;8.27;;;;;;;0.09;nan;102399.63;4958688;28;20038;-81
2021/10/10 03:58:00;;;;;;;13.47;8.53;;;;;;;0.05;nan;102403.75;4964184;28;20041;-81
2021/10/10 04:00:28;;;;;;;13.30;8.13;;;;;;;0.00;nan;102400.06;4963582;28;20129;-81
2021/10/10 04:02:55;;;;;;;13.63;8.60;;;;;;;-0.07;nan;102401.44;5004478;28;20037;-81
2021/10/10 04:07:59;;;;;;;12.03;7.70;;;;;;;-0.13;nan;102395.03;4978135;28;20049;-81
2021/10/10 04:10:27;;;;;;;15.00;9.17;;;;;;;-0.24;nan;102399.69;4975881;28;20065;-81
2021/10/10 04:12:54;;;;;;;11.37;7.30;;;;;;;-0.18;nan;102399.09;4992927;28;20141;-82
2021/10/10 04:15:21;;;;;;;13.67;7.40;;;;;;;-0.17;nan;102394.00;4971671;28;20617;-81
2021/10/10 04:17:48;;;;;;;13.00;7.33;;;;;;;-0.22;nan;102392.88;4965321;28;20045;-81
2021/10/10 04:20:17;;;;;;;14.70;8.60;;;;;;;-0.29;nan;102396.84;4981053;28;20039;-81
2021/10/10 04:22:44;;;;;;;15.87;8.10;;;;;;;-0.23;nan;102398.00;4969252;28;20125;-81
2021/10/10 04:25:11;;;;;;;12.57;7.93;;;;;;;-0.23;nan;102393.69;4983782;28;21555;-80
2021/10/10 04:27:39;;;;;;;14.37;9.00;;;;;;;-0.18;nan;102387.00;4983838;28;20042;-81
2021/10/10 04:30:09;;;;;;;12.73;7.50;;;;;;;-0.18;nan;102386.09;4977229;28;20519;-81
2021/10/10 04:32:36;;;;;;;12.93;7.87;;;;;;;-0.18;nan;102386.09;4959901;28;20077;-81
2021/10/10 04:35:03;;;;;;;11.47;7.40;;;;;;;-0.23;nan;102382.41;4964741;28;20038;-81
2021/10/10 04:37:30;;;;;;;14.10;8.20;;;;;;;-0.16;nan;102393.19;4956886;28;20034;-80
2021/10/10 04:39:57;;;;;;;15.73;8.10;;;;;;;-0.22;nan;102387.66;4983524;28;20050;-81
2021/10/10 04:42:23;;;;;;;15.93;8.97;;;;;;;-0.19;nan;102397.31;4963111;28;20498;-81
2021/10/10 04:44:51;;;;;;;13.77;7.63;;;;;;;-0.30;nan;102394.19;4962319;28;20054;-81
2021/10/10 04:47:18;;;;;;;13.67;8.33;;;;;;;-0.30;nan;102389.00;4992743;28;20041;-81
2021/10/10 04:49:44;;;;;;;14.37;9.00;;;;;;;-0.29;nan;102383.88;4965547;28;20046;-81
2021/10/10 04:52:11;;;;;;;16.27;9.83;;;;;;;-0.26;nan;102388.31;4984011;28;20052;-81
2021/10/10 04:54:39;;;;;;;17.20;9.37;;;;;;;-0.31;nan;102389.81;4984831;28;20073;-81
2021/10/10 04:57:06;;;;;;;16.20;8.93;;;;;;;-0.25;nan;102378.81;4954939;28;20542;-81
2021/10/10 04:59:33;;;;;;;17.33;10.07;;;;;;;-0.32;nan;102377.63;4963371;28;20125;-81
2021/10/10 05:01:59;;;;;;;17.20;9.13;;;;;;;-0.33;nan;102378.47;4975208;28;20153;-81
2021/10/10 05:04:29;;;;;;;15.47;9.63;;;;;;;-0.42;nan;102377.94;5000169;28;20064;-81
2021/10/10 05:06:56;;;;;;;16.67;8.90;;;;;;;-0.42;nan;102378.88;4975642;28;20052;-81
2021/10/10 05:09:25;;;;;;;15.57;9.17;;;;;;;-0.44;nan;102382.19;4974360;28;20042;-81
2021/10/10 05:11:53;;;;;;;16.53;9.20;;;;;;;-0.41;nan;102379.75;4981745;28;20053;-80
2021/10/10 05:14:20;;;;;;;14.33;8.87;;;;;;;-0.41;nan;102377.16;4967499;28;20048;-80
2021/10/10 05:16:47;;;;;;;13.90;9.13;;;;;;;-0.40;nan;102377.25;4981226;28;20052;-80
2021/10/10 05:19:13;;;;;;;16.23;9.93;;;;;;;-0.32;nan;102373.34;4978834;28;20050;-81
2021/10/10 05:21:40;;;;;;;15.20;9.80;;;;;;;-0.31;nan;102369.03;5007461;28;20038;-80
2021/10/10 05:24:07;;;;;;;14.63;9.37;;;;;;;-0.39;nan;102372.94;4981821;28;20066;-80
2021/10/10 05:26:33;;;;;;;15.63;9.07;;;;;;;-0.45;nan;102370.91;4994777;28;20062;-81
2021/10/10 05:29:00;;;;;;;15.07;8.97;;;;;;;-0.33;nan;102368.06;4980056;28;20038;-81
2021/10/10 05:31:27;;;;;;;16.47;9.33;;;;;;;-0.36;nan;102373.09;4976514;28;20104;-80
2021/10/10 05:33:54;;;;;;;13.70;8.17;;;;;;;-0.34;nan;102374.03;4988882;28;20124;-80
2021/10/10 05:36:20;;;;;;;19.50;10.27;;;;;;;-0.38;nan;102372.13;4969991;28;21506;-80
2021/10/10 05:38:47;;;;;;;14.87;9.43;;;;;;;-0.35;nan;102374.84;4957781;28;20041;-80
2021/10/10 05:41:14;;;;;;;21.50;9.23;;;;;;;-0.34;nan;102368.84;4959827;28;20049;-81
2021/10/10 05:43:41;;;;;;;13.90;8.37;;;;;;;-0.38;nan;102367.81;4993784;28;20577;-80
2021/10/10 05:46:08;;;;;;;12.83;8.40;;;;;;;-0.39;nan;102372.94;4974870;28;20050;-80
2021/10/10 05:48:34;;;;;;;14.07;8.50;;;;;;;-0.39;nan;102365.16;4958098;28;20042;-80
2021/10/10 05:51:01;;;;;;;15.57;9.27;;;;;;;-0.37;nan;102358.31;4979159;28;20523;-81
2021/10/10 05:53:28;;;;;;;17.30;9.83;;;;;;;-0.38;nan;102364.31;4967061;28;20546;-81
2021/10/10 05:55:59;;;;;;;16.43;9.83;;;;;;;-0.32;nan;102367.25;4977017;28;20034;-84
2021/10/10 05:58:28;;;;;;;16.97;9.60;;;;;;;-0.29;nan;102370.88;4959961;28;20568;-81
2021/10/10 06:00:54;;;;;;;16.27;9.60;;;;;;;-0.25;nan;102363.22;4959961;28;20038;-81
2021/10/10 06:03:22;;;;;;;18.13;9.33;;;;;;;-0.29;nan;102364.78;4956758;28;20041;-81
2021/10/10 06:05:48;;;;;;;16.57;8.83;;;;;;;-0.29;nan;102375.19;4990683;28;20039;-81
2021/10/10 06:08:15;;;;;;;15.47;8.53;;;;;;;-0.29;nan;102367.41;4986538;28;20045;-81
2021/10/10 06:10:43;;;;;;;17.93;10.10;;;;;;;-0.21;nan;102367.78;4991477;28;20392;-80
2021/10/10 06:13:09;;;;;;;18.30;10.20;;;;;;;-0.19;nan;102363.56;4972276;28;20049;-80
2021/10/10 06:15:36;;;;;;;16.07;10.37;;;;;;;-0.15;nan;102373.28;4990598;28;20410;-79
2021/10/10 06:18:07;;;;;;;20.00;10.63;;;;;;;-0.14;nan;102373.38;4973337;28;20045;-80
2021/10/10 06:20:35;;;;;;;17.93;10.17;;;;;;;-0.10;nan;102383.09;4954598;28;20066;-80
2021/10/10 06:23:02;;;;;;;20.03;11.23;;;;;;;-0.02;nan;102373.06;4969288;28;20125;-80
2021/10/10 06:25:29;;;;;;;17.13;10.03;;;;;;;-0.04;nan;102377.31;4993214;28;20044;-81
2021/10/10 06:27:56;;;;;;;16.17;10.00;;;;;;;0.08;nan;102375.31;4973293;28;20040;-81
2021/10/10 06:30:23;;;;;;;15.97;9.40;;;;;;;0.10;nan;102362.41;4974723;28;20073;-81
2021/10/10 06:32:49;;;;;;;19.40;10.63;;;;;;;0.12;nan;102365.97;4951487;28;20066;-81
2021/10/10 06:35:16;;;;;;;14.30;10.63;;;;;;;0.14;nan;102372.13;4969661;28;20499;-81
2021/10/10 06:37:43;;;;;;;16.10;9.67;;;;;;;0.18;nan;102366.28;4945288;28;1011711;-81
2021/10/10 06:40:10;;;;;;;14.17;9.00;;;;;;;0.28;nan;102374.59;4964752;28;20042;-81
2021/10/10 06:42:37;;;;;;;15.73;9.33;;;;;;;0.27;nan;102365.03;4971226;28;20045;-81
2021/10/10 06:45:05;;;;;;;13.77;8.90;;;;;;;0.38;nan;102362.94;4989377;28;20056;-81
2021/10/10 06:47:31;;;;;;;16.03;9.27;;;;;;;0.34;nan;102363.63;4976807;28;20056;-81
2021/10/10 06:49:58;;;;;;;15.83;9.70;;;;;;;0.42;nan;102367.47;5005687;28;20095;-80
2021/10/10 06:52:25;;;;;;;17.73;10.97;;;;;;;0.46;nan;102360.69;5004318;28;20048;-81
2021/10/10 06:54:52;;;;;;;17.93;11.03;;;;;;;0.50;nan;102365.22;4968549;28;20053;-81
2021/10/10 06:57:19;;;;;;;16.30;10.57;;;;;;;0.55;nan;102364.63;4978754;28;20041;-82
2021/10/10 06:59:46;;;;;;;17.87;10.33;;;;;;;0.57;nan;102375.97;4981522;28;20132;-81
2021/10/10 07:02:12;;;;;;;18.50;12.03;;;;;;;0.75;nan;102367.25;4980579;28;20046;-80
2021/10/10 07:04:39;;;;;;;18.60;10.70;;;;;;;0.77;nan;102370.84;4977362;28;20048;-81
2021/10/10 07:07:06;;;;;;;18.00;10.30;;;;;;;0.80;nan;102360.56;4976895;28;20045;-83
2021/10/10 07:09:33;;;;;;;18.27;10.87;;;;;;;0.90;nan;102367.97;4954943;28;20037;-83
2021/10/10 07:12:00;;;;;;;15.80;9.40;;;;;;;0.88;nan;102367.03;4965669;28;20515;-83
2021/10/10 07:14:27;;;;;;;16.80;9.53;;;;;;;1.00;nan;102369.28;4958777;28;20506;-82
2021/10/10 07:17:31;;;;;;;16.40;9.53;;;;;;;1.10;nan;102361.09;4998317;23;20123;-80
2021/10/10 07:20:11;;;;;;;14.30;9.23;;;;;;;1.17;nan;102370.06;4974774;28;20078;-80
2021/10/10 07:22:56;;;;;;;14.38;9.95;;;;;;;1.24;nan;102366.91;4975860;28;20045;-81
2021/10/10 07:25:30;;;;;;;15.23;9.47;;;;;;;1.37;nan;102364.03;4963638;28;20050;-80
2021/10/10 07:28:01;;;;;;;16.93;10.47;;;;;;;1.47;nan;102376.63;4975116;28;20090;-81
2021/10/10 07:30:30;;;;;;;17.17;9.50;;;;;;;1.60;nan;102372.88;4964231;28;20033;-81
2021/10/10 07:32:57;;;;;;;15.13;10.27;;;;;;;1.85;nan;102370.50;4977913;28;20050;-81
2021/10/10 07:35:26;;;;;;;15.17;10.17;;;;;;;1.97;nan;102370.09;5012382;28;20041;-82
2021/10/10 07:38:49;;;;;;;21.90;11.90;;;;;;;2.05;nan;102368.69;4971897;28;20034;-81
2021/10/10 07:41:22;;;;;;;19.20;11.37;;;;;;;2.21;nan;102378.06;4992038;28;20038;-82
2021/10/10 07:43:49;;;;;;;23.87;13.73;;;;;;;2.33;nan;102372.44;4978147;28;20604;-81
2021/10/10 07:46:22;;;;;;;22.53;13.63;;;;;;;2.46;nan;102364.28;4995683;28;20141;-82
2021/10/10 07:48:48;;;;;;;21.07;12.80;;;;;;;2.59;nan;102379.56;4977525;28;20050;-81
2021/10/10 07:51:16;;;;;;;18.20;12.53;;;;;;;2.70;nan;102370.47;4978384;28;20061;-81
2021/10/10 07:53:44;;;;;;;17.03;11.97;;;;;;;2.88;nan;102367.69;4977602;28;20050;-82
2021/10/10 07:56:11;;;;;;;21.03;13.03;;;;;;;3.04;nan;102366.53;4979484;28;20133;-81
2021/10/10 07:58:38;;;;;;;21.30;13.07;;;;;;;3.17;nan;102367.88;4975118;28;20423;-80
2021/10/10 08:01:04;;;;;;;40.00;23.47;;;;;;;3.37;nan;102367.78;4972242;28;20096;-79
2021/10/10 08:03:31;;;;;;;34.70;20.70;;;;;;;3.66;nan;102371.41;4977327;28;20069;-79
2021/10/10 08:05:58;;;;;;;27.30;15.80;;;;;;;3.94;nan;102365.41;5012405;28;20406;-80
2021/10/10 08:08:24;;;;;;;24.03;14.57;;;;;;;4.22;nan;102362.00;4976427;28;20069;-80
2021/10/10 08:10:51;;;;;;;23.10;13.70;;;;;;;4.49;nan;102361.97;4975993;28;20050;-79
2021/10/10 08:13:18;;;;;;;22.10;14.40;;;;;;;4.51;nan;102370.75;4957885;28;20050;-79
2021/10/10 08:15:44;;;;;;;21.37;13.53;;;;;;;4.54;nan;102364.75;4992565;28;20053;-79
2021/10/10 08:18:11;;;;;;;25.60;14.63;;;;;;;4.71;nan;102365.28;4978437;28;20041;-79
2021/10/10 08:20:38;;;;;;;22.80;13.90;;;;;;;4.83;nan;102355.16;4959344;28;20045;-79
2021/10/10 08:23:06;;;;;;;22.37;14.00;;;;;;;4.80;nan;102357.72;4975251;28;20038;-80
2021/10/10 08:25:32;;;;;;;20.60;12.03;;;;;;;5.07;nan;102357.63;4987520;28;20038;-79
2021/10/10 08:27:59;;;;;;;21.13;12.40;;;;;;;5.06;nan;102356.75;4973585;28;20038;-79
2021/10/10 08:30:26;;;;;;;18.70;12.33;;;;;;;5.08;nan;102357.66;4964931;28;20042;-78
2021/10/10 08:32:53;;;;;;;18.17;11.43;;;;;;;5.32;nan;102351.34;4972918;28;20523;-80
2021/10/10 08:35:19;;;;;;;19.70;11.87;;;;;;;5.51;nan;102351.00;4975422;28;20070;-79
2021/10/10 08:37:46;;;;;;;20.73;12.30;;;;;;;5.79;nan;102344.75;4959439;28;20523;-79
2021/10/10 08:40:15;;;;;;;22.07;13.70;;;;;;;6.14;nan;102343.09;4960701;28;20127;-79
2021/10/10 08:42:47;;;;;;;19.03;11.67;;;;;;;6.16;nan;102343.13;4961310;28;20049;-79
2021/10/10 08:45:18;;;;;;;15.70;10.87;;;;;;;6.27;nan;102343.38;4985221;28;20042;-80
2021/10/10 08:47:45;;;;;;;17.07;10.47;;;;;;;6.39;nan;102341.94;4970853;28;20034;-79
2021/10/10 08:50:23;;;;;;;20.47;12.30;;;;;;;6.69;nan;102336.47;4981990;28;20030;-79
2021/10/10 08:52:56;;;;;;;18.23;10.80;;;;;;;6.65;nan;102336.41;4975703;28;20414;-79
2021/10/10 08:55:25;;;;;;;19.07;11.30;;;;;;;6.71;nan;102332.16;4993327;28;20034;-79
2021/10/10 08:57:53;;;;;;;17.73;11.53;;;;;;;6.86;nan;102330.72;4976240;28;20379;-79
2021/10/10 09:00:33;;;;;;;19.40;12.43;;;;;;;7.31;nan;102318.53;4990875;28;20168;-79
2021/10/10 09:03:01;;;;;;;12.70;9.70;;;;;;;7.55;nan;102322.44;4979683;28;20042;-80
2021/10/10 09:05:45;;;;;;;15.00;9.20;;;;;;;8.12;nan;102324.31;4992278;28;20053;-80
2021/10/10 09:08:14;;;;;;;14.07;9.03;;;;;;;8.42;nan;102318.69;4966453;28;20030;-80
2021/10/10 09:10:41;;;;;;;16.83;11.03;;;;;;;8.51;nan;102317.94;4989418;28;20458;-80
2021/10/10 09:13:16;;;;;;;15.23;9.60;;;;;;;8.91;nan;102316.72;4978953;28;20738;-79
2021/10/10 09:15:47;;;;;;;12.93;8.85;;;;;;;9.11;nan;102309.97;4958934;28;20052;-79
2021/10/10 09:18:15;;;;;;;13.10;9.13;;;;;;;9.20;nan;102310.06;4975899;28;20054;-81
2021/10/10 09:20:44;;;;;;;13.70;9.25;;;;;;;9.58;nan;102306.94;4971964;28;20048;-80
2021/10/10 09:23:16;;;;;;;16.05;9.35;;;;;;;9.73;nan;102306.22;4965503;28;20406;-80
2021/10/10 09:25:54;;;;;;;15.07;9.50;;;;;;;9.94;nan;102300.25;4992325;28;20042;-80
2021/10/10 09:28:23;;;;;;;13.82;8.05;;;;;;;10.10;nan;102304.78;4974199;28;20039;-80
2021/10/10 09:30:59;;;;;;;12.05;7.85;;;;;;;10.26;nan;102303.19;4981465;28;20041;-79
2021/10/10 09:33:40;;;;;;;13.75;8.15;;;;;;;10.50;nan;102307.72;4976170;28;20134;-80
2021/10/10 09:36:15;;;;;;;13.65;9.35;;;;;;;10.69;nan;102302.56;4993244;28;20046;-80
2021/10/10 09:38:53;;;;;;;13.75;8.95;;;;;;;10.89;nan;102300.00;5003648;28;20057;-79
2021/10/10 09:44:19;;;;;;;11.88;9.02;;;;;;;11.20;nan;102293.06;4985902;28;20414;-80
2021/10/10 09:46:48;;;;;;;12.27;7.40;;;;;;;11.33;nan;102290.44;4991265;28;20046;-80
2021/10/10 09:49:32;;;;;;;11.35;8.48;;;;;;;11.50;nan;102286.06;4992299;28;20052;-80
2021/10/10 09:52:07;;;;;;;10.18;7.35;;;;;;;11.52;nan;102279.94;4991064;28;20050;-80
2021/10/10 09:54:58;;;;;;;13.10;8.02;;;;;;;11.49;nan;102285.19;5013194;28;20046;-80
2021/10/10 09:57:27;;;;;;;10.90;7.65;;;;;;;11.57;nan;102278.16;4997808;28;20091;-80
2021/10/10 09:59:54;;;;;;;11.52;7.80;;;;;;;11.77;nan;102274.63;4990164;28;20052;-80
2021/10/10 10:02:40;;;;;;;10.77;6.90;;;;;;;11.92;nan;102271.13;4955348;28;20038;-79
2021/10/10 10:05:08;;;;;;;14.35;7.75;;;;;;;12.03;nan;102266.75;4992092;28;20104;-80
2021/10/10 10:07:35;;;;;;;10.80;8.00;;;;;;;12.04;nan;102277.31;4975030;28;20092;-79
2021/10/10 10:10:02;;;;;;;10.38;7.90;;;;;;;12.07;nan;102271.13;4967141;28;20045;-80
2021/10/10 10:12:30;;;;;;;12.75;8.75;;;;;;;12.09;nan;102270.25;4968937;28;20099;-80
2021/10/10 10:14:59;;;;;;;10.20;7.07;;;;;;;12.27;nan;102271.97;4972096;28;20558;-79
2021/10/10 10:17:27;;;;;;;11.38;7.43;;;;;;;12.40;nan;102268.44;4988669;28;20042;-80
2021/10/10 10:19:57;;;;;;;10.98;8.05;;;;;;;12.36;nan;102253.44;4977317;28;20072;-79
2021/10/10 10:22:25;;;;;;;10.27;7.88;;;;;;;12.49;nan;102264.00;4994422;28;20049;-80
2021/10/10 10:24:52;;;;;;;12.32;8.13;;;;;;;12.47;nan;102256.03;5009365;28;20048;-81
2021/10/10 10:27:21;;;;;;;10.90;7.63;;;;;;;12.55;nan;102258.69;4956612;28;20403;-80
2021/10/10 10:29:48;;;;;;;10.00;7.68;;;;;;;12.65;nan;102253.34;4981727;28;20038;-80
2021/10/10 10:32:17;;;;;;;10.85;7.85;;;;;;;12.87;nan;102258.56;4994917;28;20057;-79
2021/10/10 10:35:19;;;;;;;13.38;8.43;;;;;;;12.80;nan;102257.69;4979176;28;20033;-80
2021/10/10 10:37:48;;;;;;;8.38;7.43;;;;;;;12.81;nan;102250.63;4902374;29;20075;-80
2021/10/10 10:40:15;;;;;;;12.15;8.57;;;;;;;12.87;nan;102258.56;4969474;28;20046;-80
2021/10/10 10:42:42;;;;;;;11.73;8.18;;;;;;;12.87;nan;102254.13;4992845;28;20046;-80
2021/10/10 10:45:23;;;;;;;11.15;8.82;;;;;;;12.84;nan;102247.94;4981199;28;20101;-80
2021/10/10 10:47:54;;;;;;;10.63;8.00;;;;;;;12.86;nan;102249.72;4979296;28;20042;-81
2021/10/10 10:50:23;;;;;;;10.70;7.88;;;;;;;12.96;nan;102251.44;4976987;28;20068;-80
2021/10/10 10:53:02;;;;;;;10.90;8.35;;;;;;;13.06;nan;102248.72;4990894;28;20045;-80
2021/10/10 10:55:32;;;;;;;13.90;8.55;;;;;;;13.07;nan;102235.47;5002721;28;20212;-81
2021/10/10 10:58:11;;;;;;;9.85;7.63;;;;;;;12.91;nan;102237.31;4991967;28;20038;-80
2021/10/10 11:00:46;;;;;;;10.45;7.63;;;;;;;13.07;nan;102242.53;4976219;28;20100;-80
2021/10/10 11:03:17;;;;;;;9.85;7.75;;;;;;;13.14;nan;102231.88;5002449;28;20042;-81
2021/10/10 11:05:49;;;;;;;9.98;6.68;;;;;;;13.11;nan;102239.84;5007098;28;20049;-81
2021/10/10 11:08:16;;;;;;;11.27;7.68;;;;;;;13.40;nan;102247.66;4968421;28;20056;-81
2021/10/10 11:11:04;;;;;;;11.07;7.28;;;;;;;13.50;nan;102225.47;4996039;28;20044;-81
2021/10/10 11:13:31;;;;;;;10.13;7.13;;;;;;;13.48;nan;102216.63;4994561;28;20073;-80
2021/10/10 11:16:06;;;;;;;12.15;7.38;;;;;;;13.27;nan;102227.41;5003859;28;20064;-80
2021/10/10 11:18:36;;;;;;;8.65;6.43;;;;;;;13.42;nan;102224.63;4994233;28;20042;-81
2021/10/10 11:21:05;;;;;;;9.45;6.90;;;;;;;13.46;nan;102220.22;4988630;28;20622;-80
2021/10/10 11:23:33;;;;;;;9.85;7.20;;;;;;;13.58;nan;102208.59;4978582;28;20136;-81
2021/10/10 11:26:05;;;;;;;10.30;7.28;;;;;;;13.39;nan;102200.78;4992210;28;20183;-81
2021/10/10 11:28:41;;;;;;;7.15;6.00;;;;;;;13.69;nan;102204.06;4973869;28;20128;-81
2021/10/10 11:31:16;;;;;;;8.40;6.00;;;;;;;13.82;nan;102202.19;4966531;28;20391;-81
2021/10/10 11:33:49;;;;;;;10.32;7.25;;;;;;;13.86;nan;102195.94;4959601;28;20042;-80
2021/10/10 11:36:15;;;;;;;8.45;6.18;;;;;;;13.99;nan;102193.16;4986855;28;20077;-80
2021/10/10 11:38:50;;;;;;;9.07;7.05;;;;;;;14.04;nan;102194.00;4975195;28;20133;-80
2021/10/10 11:41:17;;;;;;;8.32;6.22;;;;;;;13.93;nan;102187.03;4982600;28;20108;-81
2021/10/10 11:43:57;;;;;;;10.20;6.50;;;;;;;13.95;nan;102191.41;4971659;28;20047;-80
2021/10/10 11:46:26;;;;;;;8.07;6.13;;;;;;;13.89;nan;102182.66;5009601;28;20042;-80
2021/10/10 11:48:55;;;;;;;8.88;6.18;;;;;;;13.96;nan;102182.56;4978186;28;20120;-80
2021/10/10 11:51:38;;;;;;;14.07;6.55;;;;;;;14.00;nan;102180.75;4981300;28;20045;-81